sensor_id;sensor_type;location;lat;lon;timestamp;pressure;altitude;pressure_sealevel;temperature;humidity
16016;BME280;8112;53.592;10.184;2023-01-28T00:01:28;102577.06;;;1.92;100.00
16016;BME280;8112;53.592;10.184;2023-01-28T00:06:31;102580.50;;;1.84;100.00
16016;BME280;8112;53.592;10.184;2023-01-28T00:11:33;102578.72;;;1.79;100.00
16016;BME280;8112;53.592;10.184;2023-01-28T00:16:34;102582.22;;;1.84;100.00
16016;BME280;8112;53.592;10.184;2023-01-28T00:21:37;102593.53;;;1.88;100.00
16016;BME280;8112;53.592;10.184;2023-01-28T00:26:40;102586.56;;;1.88;100.00
16016;BME280;8112;53.592;10.184;2023-01-28T00:31:42;102588.34;;;1.92;100.00
16016;BME280;8112;53.592;10.184;2023-01-28T00:36:45;102590.97;;;1.97;100.00
16016;BME280;8112;53.592;10.184;2023-01-28T00:41:56;102581.44;;;1.99;100.00
16016;BME280;8112;53.592;10.184;2023-01-28T00:46:58;102585.78;;;1.97;100.00
16016;BME280;8112;53.592;10.184;2023-01-28T00:52:01;102584.91;;;1.98;100.00
16016;BME280;8112;53.592;10.184;2023-01-28T00:57:03;102578.00;;;1.98;100.00
16016;BME280;8112;53.592;10.184;2023-01-28T01:02:05;102582.28;;;1.92;100.00
16016;BME280;8112;53.592;10.184;2023-01-28T01:07:13;102588.25;;;1.81;100.00
16016;BME280;8112;53.592;10.184;2023-01-28T01:12:15;102574.38;;;1.79;100.00
16016;BME280;8112;53.592;10.184;2023-01-28T01:17:17;102577.78;;;1.69;100.00
16016;BME280;8112;53.592;10.184;2023-01-28T01:22:20;102579.56;;;1.79;100.00
16016;BME280;8112;53.592;10.184;2023-01-28T01:27:22;102577.81;;;1.72;100.00
16016;BME280;8112;53.592;10.184;2023-01-28T01:32:28;102583.06;;;1.81;100.00
16016;BME280;8112;53.592;10.184;2023-01-28T01:37:32;102585.56;;;1.69;100.00
16016;BME280;8112;53.592;10.184;2023-01-28T01:42:33;102584.56;;;1.51;100.00
16016;BME280;8112;53.592;10.184;2023-01-28T01:47:41;102566.41;;;1.54;100.00
16016;BME280;8112;53.592;10.184;2023-01-28T01:52:48;102574.31;;;1.67;100.00
16016;BME280;8112;53.592;10.184;2023-01-28T01:57:53;102575.19;;;1.74;100.00
16016;BME280;8112;53.592;10.184;2023-01-28T02:02:57;102580.44;;;1.78;100.00
16016;BME280;8112;53.592;10.184;2023-01-28T02:08:01;102577.84;;;1.78;100.00
16016;BME280;8112;53.592;10.184;2023-01-28T02:13:19;102567.38;;;1.70;100.00
16016;BME280;8112;53.592;10.184;2023-01-28T02:18:23;102582.84;;;1.53;100.00
16016;BME280;8112;53.592;10.184;2023-01-28T02:23:43;102574.25;;;1.62;100.00
16016;BME280;8112;53.592;10.184;2023-01-28T02:28:51;102566.44;;;1.61;100.00
16016;BME280;8112;53.592;10.184;2023-01-28T02:33:59;102567.28;;;1.60;100.00
16016;BME280;8112;53.592;10.184;2023-01-28T02:39:08;102570.75;;;1.57;100.00
16016;BME280;8112;53.592;10.184;2023-01-28T02:44:16;102565.56;;;1.62;100.00
16016;BME280;8112;53.592;10.184;2023-01-28T02:49:22;102568.19;;;1.62;100.00
16016;BME280;8112;53.592;10.184;2023-01-28T02:54:33;102568.97;;;1.51;100.00
16016;BME280;8112;53.592;10.184;2023-01-28T02:59:44;102570.72;;;1.54;100.00
16016;BME280;8112;53.592;10.184;2023-01-28T03:04:53;102569.06;;;1.62;100.00
16016;BME280;8112;53.592;10.184;2023-01-28T03:10:01;102575.00;;;1.47;100.00
16016;BME280;8112;53.592;10.184;2023-01-28T03:15:11;102572.28;;;1.32;100.00
16016;BME280;8112;53.592;10.184;2023-01-28T03:20:36;102564.53;;;1.41;100.00
16016;BME280;8112;53.592;10.184;2023-01-28T03:25:59;102551.66;;;1.50;100.00
16016;BME280;8112;53.592;10.184;2023-01-28T03:31:23;102545.50;;;1.45;100.00
16016;BME280;8112;53.592;10.184;2023-01-28T03:36:45;102552.44;;;1.46;100.00
16016;BME280;8112;53.592;10.184;2023-01-28T03:42:08;102561.97;;;1.42;100.00
16016;BME280;8112;53.592;10.184;2023-01-28T03:47:20;102567.97;;;1.37;100.00
16016;BME280;8112;53.592;10.184;2023-01-28T03:52:25;102565.34;;;1.34;100.00
16016;BME280;8112;53.592;10.184;2023-01-28T03:57:41;102567.97;;;1.37;100.00
16016;BME280;8112;53.592;10.184;2023-01-28T04:02:47;102555.81;;;1.33;100.00
16016;BME280;8112;53.592;10.184;2023-01-28T04:07:53;102561.16;;;1.48;100.00
16016;BME280;8112;53.592;10.184;2023-01-28T04:13:27;102568.13;;;1.55;100.00
16016;BME280;8112;53.592;10.184;2023-01-28T04:18:30;102565.41;;;1.38;100.00
16016;BME280;8112;53.592;10.184;2023-01-28T04:23:32;102566.13;;;1.25;100.00
16016;BME280;8112;53.592;10.184;2023-01-28T04:28:34;102555.81;;;1.33;100.00
16016;BME280;8112;53.592;10.184;2023-01-28T04:33:38;102550.59;;;1.30;100.00
16016;BME280;8112;53.592;10.184;2023-01-28T04:38:58;102567.03;;;1.27;100.00
16016;BME280;8112;53.592;10.184;2023-01-28T04:44:23;102557.47;;;1.24;100.00
16016;BME280;8112;53.592;10.184;2023-01-28T04:49:58;102564.44;;;1.28;100.00
16016;BME280;8112;53.592;10.184;2023-01-28T04:55:16;102565.16;;;1.13;100.00
16016;BME280;8112;53.592;10.184;2023-01-28T05:00:21;102561.69;;;1.13;100.00
16016;BME280;8112;53.592;10.184;2023-01-28T05:05:26;102571.13;;;1.05;100.00
16016;BME280;8112;53.592;10.184;2023-01-28T05:10:32;102560.69;;;0.98;100.00
16016;BME280;8112;53.592;10.184;2023-01-28T05:15:33;102564.03;;;0.90;100.00
16016;BME280;8112;53.592;10.184;2023-01-28T05:20:36;102551.06;;;0.90;100.00
16016;BME280;8112;53.592;10.184;2023-01-28T05:25:38;102546.69;;;0.84;100.00
16016;BME280;8112;53.592;10.184;2023-01-28T05:30:40;102539.59;;;0.70;100.00
16016;BME280;8112;53.592;10.184;2023-01-28T05:35:43;102541.09;;;0.50;100.00
16016;BME280;8112;53.592;10.184;2023-01-28T05:40:46;102523.59;;;0.33;100.00
16016;BME280;8112;53.592;10.184;2023-01-28T05:45:48;102536.34;;;0.18;100.00
16016;BME280;8112;53.592;10.184;2023-01-28T05:51:17;102531.69;;;-0.08;100.00
16016;BME280;8112;53.592;10.184;2023-01-28T05:56:27;102533.16;;;-0.26;100.00
16016;BME280;8112;53.592;10.184;2023-01-28T06:01:28;102543.66;;;-0.17;100.00
16016;BME280;8112;53.592;10.184;2023-01-28T06:06:32;102539.50;;;-0.05;100.00
16016;BME280;8112;53.592;10.184;2023-01-28T06:11:35;102541.19;;;-0.09;100.00
16016;BME280;8112;53.592;10.184;2023-01-28T06:16:39;102541.91;;;-0.19;100.00
16016;BME280;8112;53.592;10.184;2023-01-28T06:22:00;102539.31;;;-0.19;100.00
16016;BME280;8112;53.592;10.184;2023-01-28T06:27:02;102529.91;;;-0.12;100.00
16016;BME280;8112;53.592;10.184;2023-01-28T06:32:04;102528.28;;;-0.06;100.00
16016;BME280;8112;53.592;10.184;2023-01-28T06:37:07;102533.50;;;-0.03;100.00
16016;BME280;8112;53.592;10.184;2023-01-28T06:42:09;102538.69;;;-0.01;100.00
16016;BME280;8112;53.592;10.184;2023-01-28T06:47:11;102507.53;;;-0.04;100.00
16016;BME280;8112;53.592;10.184;2023-01-28T06:52:15;102527.28;;;-0.16;100.00
16016;BME280;8112;53.592;10.184;2023-01-28T06:57:18;102536.34;;;-0.43;100.00
16016;BME280;8112;53.592;10.184;2023-01-28T07:02:20;102549.09;;;-0.55;100.00
16016;BME280;8112;53.592;10.184;2023-01-28T07:07:23;102563.53;;;-0.69;100.00
16016;BME280;8112;53.592;10.184;2023-01-28T07:12:24;102588.91;;;-0.97;100.00
16016;BME280;8112;53.592;10.184;2023-01-28T07:17:26;102594.56;;;-1.17;100.00
16016;BME280;8112;53.592;10.184;2023-01-28T07:22:29;102604.97;;;-1.14;100.00
16016;BME280;8112;53.592;10.184;2023-01-28T07:27:31;102618.13;;;-1.05;100.00
16016;BME280;8112;53.592;10.184;2023-01-28T07:32:32;102620.03;;;-0.94;100.00
16016;BME280;8112;53.592;10.184;2023-01-28T07:37:35;102613.34;;;-0.83;100.00
16016;BME280;8112;53.592;10.184;2023-01-28T07:42:37;102607.53;;;-0.73;100.00
16016;BME280;8112;53.592;10.184;2023-01-28T07:47:40;102617.78;;;-0.77;100.00
16016;BME280;8112;53.592;10.184;2023-01-28T07:52:43;102615.16;;;-0.79;100.00
16016;BME280;8112;53.592;10.184;2023-01-28T07:57:49;102615.19;;;-0.76;100.00
16016;BME280;8112;53.592;10.184;2023-01-28T08:02:54;102625.56;;;-0.76;100.00
16016;BME280;8112;53.592;10.184;2023-01-28T08:07:58;102628.19;;;-0.74;100.00
16016;BME280;8112;53.592;10.184;2023-01-28T08:12:59;102640.38;;;-0.68;100.00
16016;BME280;8112;53.592;10.184;2023-01-28T08:18:02;102628.22;;;-0.73;100.00
16016;BME280;8112;53.592;10.184;2023-01-28T08:23:07;102641.19;;;-0.73;100.00
16016;BME280;8112;53.592;10.184;2023-01-28T08:28:10;102623.34;;;-0.55;100.00
16016;BME280;8112;53.592;10.184;2023-01-28T08:33:14;102636.63;;;-0.37;100.00
16016;BME280;8112;53.592;10.184;2023-01-28T08:38:17;102641.00;;;-0.33;100.00
16016;BME280;8112;53.592;10.184;2023-01-28T08:43:19;102640.28;;;-0.24;100.00
16016;BME280;8112;53.592;10.184;2023-01-28T08:48:21;102633.44;;;-0.20;100.00
16016;BME280;8112;53.592;10.184;2023-01-28T08:53:24;102637.97;;;-0.08;100.00
16016;BME280;8112;53.592;10.184;2023-01-28T08:58:26;102661.97;;;-0.20;100.00
16016;BME280;8112;53.592;10.184;2023-01-28T09:03:27;102662.75;;;-0.23;100.00
16016;BME280;8112;53.592;10.184;2023-01-28T09:08:30;102670.44;;;-0.29;100.00
16016;BME280;8112;53.592;10.184;2023-01-28T09:13:32;102663.53;;;-0.29;100.00
16016;BME280;8112;53.592;10.184;2023-01-28T09:18:34;102685.41;;;-0.12;100.00
16016;BME280;8112;53.592;10.184;2023-01-28T09:23:37;102692.69;;;0.10;100.00
16016;BME280;8112;53.592;10.184;2023-01-28T09:28:39;102696.53;;;0.34;100.00
16016;BME280;8112;53.592;10.184;2023-01-28T09:33:41;102686.34;;;0.47;100.00
16016;BME280;8112;53.592;10.184;2023-01-28T09:38:44;102704.00;;;0.71;100.00
16016;BME280;8112;53.592;10.184;2023-01-28T09:44:12;102695.41;;;0.77;100.00
16016;BME280;8112;53.592;10.184;2023-01-28T09:49:31;102698.16;;;0.88;100.00
16016;BME280;8112;53.592;10.184;2023-01-28T09:54:42;102686.22;;;1.02;100.00
16016;BME280;8112;53.592;10.184;2023-01-28T09:59:45;102657.75;;;1.10;100.00
16016;BME280;8112;53.592;10.184;2023-01-28T10:04:56;102659.81;;;1.42;100.00
16016;BME280;8112;53.592;10.184;2023-01-28T10:10:03;102650.56;;;1.69;100.00
16016;BME280;8112;53.592;10.184;2023-01-28T10:15:19;102646.41;;;1.90;100.00
16016;BME280;8112;53.592;10.184;2023-01-28T10:20:27;102644.72;;;1.96;100.00
16016;BME280;8112;53.592;10.184;2023-01-28T10:25:33;102631.13;;;2.35;100.00
16016;BME280;8112;53.592;10.184;2023-01-28T10:30:36;102634.66;;;2.54;100.00
16016;BME280;8112;53.592;10.184;2023-01-28T10:35:41;102618.19;;;2.47;100.00
16016;BME280;8112;53.592;10.184;2023-01-28T10:40:44;102612.16;;;2.64;100.00
16016;BME280;8112;53.592;10.184;2023-01-28T10:45:53;102606.13;;;2.71;100.00
16016;BME280;8112;53.592;10.184;2023-01-28T10:50:58;102584.53;;;3.02;100.00
16016;BME280;8112;53.592;10.184;2023-01-28T10:56:04;102590.56;;;2.85;100.00
16016;BME280;8112;53.592;10.184;2023-01-28T11:01:06;102572.38;;;2.94;100.00
16016;BME280;8112;53.592;10.184;2023-01-28T11:06:23;102565.31;;;2.68;100.00
16016;BME280;8112;53.592;10.184;2023-01-28T11:11:27;102555.78;;;2.64;100.00
16016;BME280;8112;53.592;10.184;2023-01-28T11:16:29;102558.47;;;2.98;100.00
16016;BME280;8112;53.592;10.184;2023-01-28T11:21:32;102565.41;;;2.96;100.00
16016;BME280;8112;53.592;10.184;2023-01-28T11:26:37;102540.19;;;2.72;100.00
16016;BME280;8112;53.592;10.184;2023-01-28T11:31:42;102515.94;;;3.60;100.00
16016;BME280;8112;53.592;10.184;2023-01-28T11:36:49;102501.09;;;4.04;100.00
16016;BME280;8112;53.592;10.184;2023-01-28T11:41:53;102515.66;;;4.56;100.00
16016;BME280;8112;53.592;10.184;2023-01-28T11:47:09;102501.81;;;4.37;100.00
16016;BME280;8112;53.592;10.184;2023-01-28T11:52:18;102505.50;;;3.79;100.00
16016;BME280;8112;53.592;10.184;2023-01-28T11:57:25;102494.19;;;3.63;100.00
16016;BME280;8112;53.592;10.184;2023-01-28T12:02:50;102500.31;;;3.20;100.00
16016;BME280;8112;53.592;10.184;2023-01-28T12:07:59;102509.84;;;2.93;100.00
16016;BME280;8112;53.592;10.184;2023-01-28T12:13:15;102500.31;;;3.06;100.00
16016;BME280;8112;53.592;10.184;2023-01-28T12:24:13;102478.63;;;3.32;100.00
16016;BME280;8112;53.592;10.184;2023-01-28T12:29:27;102486.25;;;4.08;100.00
16016;BME280;8112;53.592;10.184;2023-01-28T12:34:59;102485.47;;;3.89;100.00
16016;BME280;8112;53.592;10.184;2023-01-28T12:40:15;102468.78;;;4.25;100.00
16016;BME280;8112;53.592;10.184;2023-01-28T12:45:25;102464.44;;;4.29;100.00
16016;BME280;8112;53.592;10.184;2023-01-28T12:50:30;102456.69;;;5.40;100.00
16016;BME280;8112;53.592;10.184;2023-01-28T12:55:39;102440.91;;;6.27;100.00
16016;BME280;8112;53.592;10.184;2023-01-28T13:00:47;102440.59;;;6.51;100.00
16016;BME280;8112;53.592;10.184;2023-01-28T13:05:54;102434.31;;;5.08;100.00
16016;BME280;8112;53.592;10.184;2023-01-28T13:11:01;102434.03;;;4.20;100.00
16016;BME280;8112;53.592;10.184;2023-01-28T13:16:07;102431.63;;;3.55;100.00
16016;BME280;8112;53.592;10.184;2023-01-28T13:21:14;102434.28;;;2.91;100.00
16016;BME280;8112;53.592;10.184;2023-01-28T13:26:35;102410.66;;;3.94;100.00
16016;BME280;8112;53.592;10.184;2023-01-28T13:31:40;102426.03;;;6.31;100.00
16016;BME280;8112;53.592;10.184;2023-01-28T13:36:44;102430.47;;;6.84;100.00
16016;BME280;8112;53.592;10.184;2023-01-28T13:41:48;102445.59;;;7.21;100.00
16016;BME280;8112;53.592;10.184;2023-01-28T13:46:52;102451.47;;;7.81;100.00
16016;BME280;8112;53.592;10.184;2023-01-28T13:52:00;102458.53;;;6.16;100.00
16016;BME280;8112;53.592;10.184;2023-01-28T13:57:21;102472.50;;;5.24;100.00
16016;BME280;8112;53.592;10.184;2023-01-28T14:03:06;102477.34;;;4.60;100.00
16016;BME280;8112;53.592;10.184;2023-01-28T14:08:35;102473.34;;;3.69;100.00
16016;BME280;8112;53.592;10.184;2023-01-28T14:14:01;102462.06;;;3.62;100.00
16016;BME280;8112;53.592;10.184;2023-01-28T14:19:11;102459.47;;;3.34;100.00
16016;BME280;8112;53.592;10.184;2023-01-28T14:24:16;102453.41;;;3.24;100.00
16016;BME280;8112;53.592;10.184;2023-01-28T14:29:45;102451.66;;;3.11;100.00
16016;BME280;8112;53.592;10.184;2023-01-28T14:34:49;102444.72;;;3.18;100.00
16016;BME280;8112;53.592;10.184;2023-01-28T14:39:52;102450.81;;;3.12;100.00
16016;BME280;8112;53.592;10.184;2023-01-28T14:45:06;102436.03;;;3.05;100.00
16016;BME280;8112;53.592;10.184;2023-01-28T14:50:29;102461.25;;;3.04;100.00
16016;BME280;8112;53.592;10.184;2023-01-28T14:55:38;102476.84;;;3.09;100.00
16016;BME280;8112;53.592;10.184;2023-01-28T15:00:52;102482.94;;;2.98;100.00
16016;BME280;8112;53.592;10.184;2023-01-28T15:06:03;102480.34;;;3.02;100.00
16016;BME280;8112;53.592;10.184;2023-01-28T15:11:07;102493.34;;;3.02;100.00
16016;BME280;8112;53.592;10.184;2023-01-28T15:16:15;102496.81;;;2.91;100.00
16016;BME280;8112;53.592;10.184;2023-01-28T15:21:20;102484.63;;;2.79;100.00
16016;BME280;8112;53.592;10.184;2023-01-28T15:26:24;102482.91;;;2.75;100.00
16016;BME280;8112;53.592;10.184;2023-01-28T15:31:28;102446.44;;;2.67;100.00
16016;BME280;8112;53.592;10.184;2023-01-28T15:36:31;102453.34;;;2.48;100.00
16016;BME280;8112;53.592;10.184;2023-01-28T15:41:38;102463.69;;;2.37;100.00
16016;BME280;8112;53.592;10.184;2023-01-28T15:46:41;102467.22;;;2.47;100.00
16016;BME280;8112;53.592;10.184;2023-01-28T15:51:48;102460.25;;;2.40;100.00
16016;BME280;8112;53.592;10.184;2023-01-28T15:56:51;102456.72;;;2.28;100.00
16016;BME280;8112;53.592;10.184;2023-01-28T16:02:17;102446.31;;;2.28;100.00
16016;BME280;8112;53.592;10.184;2023-01-28T16:07:20;102436.78;;;2.20;100.00
16016;BME280;8112;53.592;10.184;2023-01-28T16:12:23;102448.94;;;2.27;100.00
16016;BME280;8112;53.592;10.184;2023-01-28T16:17:28;102455.88;;;2.25;100.00
16016;BME280;8112;53.592;10.184;2023-01-28T16:22:34;102447.22;;;2.26;100.00
16016;BME280;8112;53.592;10.184;2023-01-28T16:27:36;102450.69;;;2.33;100.00
16016;BME280;8112;53.592;10.184;2023-01-28T16:32:38;102467.19;;;2.35;100.00
16016;BME280;8112;53.592;10.184;2023-01-28T16:37:43;102448.97;;;2.35;100.00
16016;BME280;8112;53.592;10.184;2023-01-28T16:42:45;102462.84;;;2.31;100.00
16016;BME280;8112;53.592;10.184;2023-01-28T16:47:48;102452.41;;;2.26;100.00
16016;BME280;8112;53.592;10.184;2023-01-28T16:52:52;102433.31;;;2.21;100.00
16016;BME280;8112;53.592;10.184;2023-01-28T16:57:55;102448.06;;;2.23;100.00
16016;BME280;8112;53.592;10.184;2023-01-28T17:02:57;102458.47;;;2.22;100.00
16016;BME280;8112;53.592;10.184;2023-01-28T17:08:01;102456.72;;;2.28;100.00
16016;BME280;8112;53.592;10.184;2023-01-28T17:13:02;102445.44;;;2.19;100.00
16016;BME280;8112;53.592;10.184;2023-01-28T17:18:04;102457.53;;;2.07;100.00
16016;BME280;8112;53.592;10.184;2023-01-28T17:23:07;102461.81;;;1.94;100.00
16016;BME280;8112;53.592;10.184;2023-01-28T17:28:13;102468.78;;;2.08;100.00
16016;BME280;8112;53.592;10.184;2023-01-28T17:33:15;102461.00;;;2.06;100.00
16016;BME280;8112;53.592;10.184;2023-01-28T17:38:18;102465.34;;;2.10;100.00
16016;BME280;8112;53.592;10.184;2023-01-28T17:43:19;102465.31;;;2.09;100.00
16016;BME280;8112;53.592;10.184;2023-01-28T17:48:21;102453.97;;;1.83;100.00
16016;BME280;8112;53.592;10.184;2023-01-28T17:53:24;102448.78;;;1.87;100.00
16016;BME280;8112;53.592;10.184;2023-01-28T17:58:26;102460.94;;;1.97;100.00
16016;BME280;8112;53.592;10.184;2023-01-28T18:03:28;102465.28;;;1.95;100.00
16016;BME280;8112;53.592;10.184;2023-01-28T18:08:31;102461.81;;;1.96;100.00
16016;BME280;8112;53.592;10.184;2023-01-28T18:13:34;102467.00;;;1.93;100.00
16016;BME280;8112;53.592;10.184;2023-01-28T18:18:36;102472.19;;;1.91;100.00
16016;BME280;8112;53.592;10.184;2023-01-28T18:23:39;102488.59;;;1.75;100.00
16016;BME280;8112;53.592;10.184;2023-01-28T18:28:41;102493.84;;;1.89;100.00
16016;BME280;8112;53.592;10.184;2023-01-28T18:33:43;102487.00;;;2.06;100.00
16016;BME280;8112;53.592;10.184;2023-01-28T18:38:46;102486.13;;;2.04;100.00
16016;BME280;8112;53.592;10.184;2023-01-28T18:43:47;102474.84;;;2.01;100.00
16016;BME280;8112;53.592;10.184;2023-01-28T18:48:49;102463.59;;;2.08;100.00
16016;BME280;8112;53.592;10.184;2023-01-28T18:53:54;102460.16;;;2.12;100.00
16016;BME280;8112;53.592;10.184;2023-01-28T18:58:57;102452.34;;;2.07;100.00
16016;BME280;8112;53.592;10.184;2023-01-28T19:04:00;102452.34;;;2.04;100.00
16016;BME280;8112;53.592;10.184;2023-01-28T19:09:05;102433.25;;;2.08;100.00
16016;BME280;8112;53.592;10.184;2023-01-28T19:14:07;102434.06;;;1.98;100.00
16016;BME280;8112;53.592;10.184;2023-01-28T19:19:09;102435.84;;;2.10;100.00
16016;BME280;8112;53.592;10.184;2023-01-28T19:24:12;102430.69;;;2.11;100.00
16016;BME280;8112;53.592;10.184;2023-01-28T19:29:14;102429.81;;;2.12;100.00
16016;BME280;8112;53.592;10.184;2023-01-28T19:34:16;102438.50;;;2.18;100.00
16016;BME280;8112;53.592;10.184;2023-01-28T19:39:19;102436.75;;;2.17;100.00
16016;BME280;8112;53.592;10.184;2023-01-28T19:44:20;102429.81;;;2.16;100.00
16016;BME280;8112;53.592;10.184;2023-01-28T19:49:22;102427.28;;;2.30;100.00
16016;BME280;8112;53.592;10.184;2023-01-28T19:54:25;102424.63;;;2.19;100.00
16016;BME280;8112;53.592;10.184;2023-01-28T19:59:27;102434.13;;;2.06;100.00
16016;BME280;8112;53.592;10.184;2023-01-28T20:04:29;102437.63;;;2.19;100.00
16016;BME280;8112;53.592;10.184;2023-01-28T20:09:32;102436.75;;;2.12;100.00
16016;BME280;8112;53.592;10.184;2023-01-28T20:14:33;102426.31;;;2.07;100.00
16016;BME280;8112;53.592;10.184;2023-01-28T20:19:35;102418.50;;;2.06;100.00
16016;BME280;8112;53.592;10.184;2023-01-28T20:24:38;102416.75;;;1.97;100.00
16016;BME280;8112;53.592;10.184;2023-01-28T20:29:40;102414.19;;;2.08;100.00
16016;BME280;8112;53.592;10.184;2023-01-28T20:34:42;102422.03;;;2.11;100.00
16016;BME280;8112;53.592;10.184;2023-01-28T20:39:45;102417.66;;;2.14;100.00
16016;BME280;8112;53.592;10.184;2023-01-28T20:44:46;102412.47;;;2.18;100.00
16016;BME280;8112;53.592;10.184;2023-01-28T20:49:48;102404.69;;;2.13;100.00
16016;BME280;8112;53.592;10.184;2023-01-28T20:54:51;102401.19;;;2.12;100.00
16016;BME280;8112;53.592;10.184;2023-01-28T20:59:53;102402.06;;;2.11;100.00
16016;BME280;8112;53.592;10.184;2023-01-28T21:04:54;102404.66;;;2.18;100.00
16016;BME280;8112;53.592;10.184;2023-01-28T21:09:57;102411.63;;;2.23;100.00
16016;BME280;8112;53.592;10.184;2023-01-28T21:14:59;102404.66;;;2.02;100.00
16016;BME280;8112;53.592;10.184;2023-01-28T21:20:01;102397.72;;;2.04;100.00
16016;BME280;8112;53.592;10.184;2023-01-28T21:25:06;102407.25;;;2.05;100.00
16016;BME280;8112;53.592;10.184;2023-01-28T21:30:09;102403.78;;;2.03;100.00
16016;BME280;8112;53.592;10.184;2023-01-28T21:35:12;102410.72;;;2.04;100.00
16016;BME280;8112;53.592;10.184;2023-01-28T21:40:15;102415.94;;;2.07;100.00
16016;BME280;8112;53.592;10.184;2023-01-28T21:45:17;102409.00;;;2.06;100.00
16016;BME280;8112;53.592;10.184;2023-01-28T21:50:19;102411.63;;;2.14;100.00
16016;BME280;8112;53.592;10.184;2023-01-28T21:55:22;102398.63;;;2.17;100.00
16016;BME280;8112;53.592;10.184;2023-01-28T22:00:24;102400.34;;;2.17;100.00
16016;BME280;8112;53.592;10.184;2023-01-28T22:05:25;102402.97;;;2.23;100.00
16016;BME280;8112;53.592;10.184;2023-01-28T22:10:28;102387.38;;;2.23;100.00
16016;BME280;8112;53.592;10.184;2023-01-28T22:15:31;102389.91;;;2.10;100.00
16016;BME280;8112;53.592;10.184;2023-01-28T22:20:32;102388.19;;;2.16;100.00
16016;BME280;8112;53.592;10.184;2023-01-28T22:25:35;102390.84;;;2.22;100.00
16016;BME280;8112;53.592;10.184;2023-01-28T22:30:37;102390.81;;;2.17;100.00
16016;BME280;8112;53.592;10.184;2023-01-28T22:35:39;102377.78;;;2.19;100.00
16016;BME280;8112;53.592;10.184;2023-01-28T22:40:42;102371.72;;;2.17;100.00
16016;BME280;8112;53.592;10.184;2023-01-28T22:45:44;102360.44;;;2.14;100.00
16016;BME280;8112;53.592;10.184;2023-01-28T22:50:45;102351.81;;;2.30;100.00
16016;BME280;8112;53.592;10.184;2023-01-28T22:55:50;102355.28;;;2.27;100.00
16016;BME280;8112;53.592;10.184;2023-01-28T23:00:52;102349.22;;;2.25;100.00
16016;BME280;8112;53.592;10.184;2023-01-28T23:05:56;102343.16;;;2.31;100.00
16016;BME280;8112;53.592;10.184;2023-01-28T23:11:01;102335.34;;;2.20;100.00
16016;BME280;8112;53.592;10.184;2023-01-28T23:16:04;102342.25;;;2.22;100.00
16016;BME280;8112;53.592;10.184;2023-01-28T23:21:25;102353.53;;;2.29;100.00
16016;BME280;8112;53.592;10.184;2023-01-28T23:26:48;102345.75;;;2.26;100.00
16016;BME280;8112;53.592;10.184;2023-01-28T23:31:51;102344.84;;;2.28;100.00
16016;BME280;8112;53.592;10.184;2023-01-28T23:36:54;102345.75;;;2.40;100.00
16016;BME280;8112;53.592;10.184;2023-01-28T23:41:57;102347.47;;;2.30;100.00
16016;BME280;8112;53.592;10.184;2023-01-28T23:46:59;102358.75;;;2.29;100.00
16016;BME280;8112;53.592;10.184;2023-01-28T23:52:01;102357.00;;;2.31;100.00
16016;BME280;8112;53.592;10.184;2023-01-28T23:57:04;102364.84;;;2.33;100.00
